createdAt,value
2019-06-10T00:00:34.978Z,19.40
2019-06-10T00:03:06.024Z,19.40
2019-06-10T00:05:37.796Z,19.30
2019-06-10T00:08:11.425Z,19.30
2019-06-10T00:10:42.146Z,19.20
2019-06-10T00:13:34.329Z,19.10
2019-06-10T00:16:08.043Z,19.00
2019-06-10T00:18:42.965Z,19.00
2019-06-10T00:21:11.976Z,19.00
2019-06-10T00:23:44.268Z,19.00
2019-06-10T00:26:14.115Z,19.00
2019-06-10T00:28:45.315Z,18.90
2019-06-10T00:31:15.955Z,18.90
2019-06-10T00:33:45.914Z,19.00
2019-06-10T00:36:17.395Z,19.00
2019-06-10T00:38:48.707Z,19.10
2019-06-10T00:41:21.953Z,19.20
2019-06-10T00:43:52.879Z,19.20
2019-06-10T00:46:24.392Z,19.20
2019-06-10T00:48:57.858Z,19.20
2019-06-10T00:51:31.412Z,19.10
2019-06-10T00:54:05.336Z,19.10
2019-06-10T00:56:36.922Z,19.00
2019-06-10T00:59:07.884Z,18.90
2019-06-10T01:01:38.106Z,18.80
2019-06-10T01:04:14.434Z,18.70
2019-06-10T01:06:42.478Z,18.70
2019-06-10T01:09:32.866Z,18.70
2019-06-10T01:12:04.835Z,18.60
2019-06-10T01:14:36.043Z,18.60
2019-06-10T01:17:10.935Z,18.50
2019-06-10T01:19:43.296Z,18.50
2019-06-10T01:22:14.204Z,18.50
2019-06-10T01:24:47.286Z,18.40
2019-06-10T01:27:18.395Z,18.40
2019-06-10T01:29:50.935Z,18.40
2019-06-10T01:32:21.794Z,18.40
2019-06-10T01:34:54.371Z,18.30
2019-06-10T01:37:26.769Z,18.30
2019-06-10T01:40:00.645Z,18.30
2019-06-10T01:42:31.445Z,18.30
2019-06-10T01:45:02.928Z,18.30
2019-06-10T01:47:37.694Z,18.30
2019-06-10T01:50:11.895Z,18.20
2019-06-10T01:52:41.342Z,18.10
2019-06-10T01:55:14.943Z,18.10
2019-06-10T01:57:46.943Z,18.10
2019-06-10T02:00:22.726Z,18.10
2019-06-10T02:02:52.403Z,18.10
2019-06-10T02:05:23.708Z,18.10
2019-06-10T02:07:55.153Z,18.10
2019-06-10T02:10:30.965Z,18.00
2019-06-10T02:13:03.388Z,18.00
2019-06-10T02:15:37.348Z,18.00
2019-06-10T02:18:11.677Z,18.00
2019-06-10T02:20:44.957Z,18.00
2019-06-10T02:23:17.059Z,18.00
2019-06-10T02:25:47.007Z,18.00
2019-06-10T02:28:23.186Z,18.00
2019-06-10T02:30:56.439Z,18.00
2019-06-10T02:33:32.344Z,18.10
2019-06-10T02:36:04.694Z,18.10
2019-06-10T02:38:39.365Z,18.10
2019-06-10T02:41:08.648Z,18.10
2019-06-10T02:43:43.823Z,18.10
2019-06-10T02:46:17.928Z,18.20
2019-06-10T02:48:49.835Z,18.20
2019-06-10T02:51:24.750Z,18.30
2019-06-10T02:53:53.994Z,18.30
2019-06-10T02:56:31.351Z,18.30
2019-06-10T02:59:03.372Z,18.30
2019-06-10T03:01:37.997Z,18.20
2019-06-10T03:04:08.337Z,18.20
2019-06-10T03:06:40.393Z,18.20
2019-06-10T03:09:14.044Z,18.20
2019-06-10T03:11:46.095Z,18.20
2019-06-10T03:14:15.816Z,18.20
2019-06-10T03:16:56.714Z,18.20
2019-06-10T03:19:41.947Z,18.30
2019-06-10T03:22:05.213Z,18.30
2019-06-10T03:24:37.923Z,18.40
2019-06-10T03:27:09.817Z,18.30
2019-06-10T03:29:42.621Z,18.30
2019-06-10T03:32:16.619Z,18.30
2019-06-10T03:34:49.177Z,18.40
2019-06-10T03:37:26.004Z,18.40
2019-06-10T03:39:57.404Z,18.40
2019-06-10T03:42:32.371Z,18.40
2019-06-10T03:45:03.317Z,18.50
2019-06-10T03:47:36.208Z,18.50
2019-06-10T03:50:09.270Z,18.60
2019-06-10T03:52:43.165Z,18.60
2019-06-10T03:55:14.560Z,18.70
2019-06-10T03:57:49.454Z,18.70
2019-06-10T04:00:19.860Z,18.80
2019-06-10T04:02:53.199Z,18.90
2019-06-10T04:05:25.762Z,18.90
2019-06-10T04:07:57.355Z,18.90
2019-06-10T04:10:28.175Z,19.00
2019-06-10T04:12:59.546Z,19.00
2019-06-10T04:15:32.562Z,19.10
2019-06-10T04:18:03.899Z,19.20
2019-06-10T04:20:33.488Z,19.30
2019-06-10T04:23:04.906Z,19.30
2019-06-10T04:25:39.847Z,19.40
2019-06-10T04:28:12.517Z,19.40
2019-06-10T04:30:43.255Z,19.50
2019-06-10T04:33:14.696Z,19.60
2019-06-10T04:35:48.321Z,19.80
2019-06-10T04:38:23.345Z,19.90
2019-06-10T04:40:55.948Z,19.90
2019-06-10T04:43:28.862Z,20.00
2019-06-10T04:45:59.125Z,20.10
2019-06-10T04:48:32.369Z,20.20
2019-06-10T04:51:05.938Z,20.30
2019-06-10T04:53:40.226Z,20.60
2019-06-10T04:56:12.106Z,20.70
2019-06-10T04:58:47.084Z,20.70
2019-06-10T05:01:19.375Z,20.80
2019-06-10T05:03:52.678Z,20.80
2019-06-10T05:09:00.932Z,21.10
2019-06-10T05:11:33.151Z,21.20
2019-06-10T05:14:05.973Z,21.30
2019-06-10T05:16:39.349Z,21.40
2019-06-10T05:19:12.826Z,21.50
2019-06-10T05:21:44.281Z,21.60
2019-06-10T05:24:14.163Z,21.80
2019-06-10T05:26:46.903Z,21.90
2019-06-10T05:29:20.739Z,22.00
2019-06-10T05:31:52.300Z,22.10
2019-06-10T05:34:27.155Z,22.20
2019-06-10T05:37:02.716Z,22.30
2019-06-10T05:39:35.048Z,22.40
2019-06-10T05:42:05.445Z,22.40
2019-06-10T05:44:38.295Z,22.50
2019-06-10T05:47:12.527Z,22.60
2019-06-10T05:49:43.610Z,22.80
2019-06-10T05:52:17.165Z,23.10
2019-06-10T05:54:48.795Z,23.20
2019-06-10T05:57:20.037Z,23.20
2019-06-10T05:59:53.930Z,23.30
2019-06-10T06:02:27.760Z,23.40
2019-06-10T06:05:02.623Z,23.60
2019-06-10T06:07:35.543Z,23.70
2019-06-10T06:10:09.733Z,23.70
2019-06-10T06:12:42.508Z,23.70
2019-06-10T06:15:15.985Z,23.80
2019-06-10T06:18:04.014Z,24.20
2019-06-10T06:20:23.485Z,24.30
2019-06-10T06:22:56.241Z,24.40
2019-06-10T06:25:30.502Z,24.40
2019-06-10T06:28:00.085Z,24.40
2019-06-10T06:30:34.272Z,24.50
2019-06-10T06:33:05.460Z,24.60
2019-06-10T06:35:42.879Z,24.70
2019-06-10T06:38:14.669Z,24.90
2019-06-10T06:40:48.686Z,25.20
2019-06-10T06:43:22.193Z,25.40
2019-06-10T06:45:53.819Z,25.30
2019-06-10T06:48:27.828Z,25.30
2019-06-10T06:51:04.369Z,25.50
2019-06-10T06:53:39.560Z,25.70
2019-06-10T06:56:06.513Z,25.90
2019-06-10T06:58:43.220Z,25.80
2019-06-10T07:01:14.947Z,25.80
2019-06-10T07:03:47.996Z,25.80
2019-06-10T07:06:22.953Z,25.90
2019-06-10T07:09:04.243Z,25.80
2019-06-10T07:11:30.578Z,25.70
2019-06-10T07:14:05.737Z,25.70
2019-06-10T07:16:37.671Z,25.70
2019-06-10T07:19:09.382Z,25.80
2019-06-10T07:22:02.361Z,25.90
2019-06-10T07:24:18.056Z,26.00
2019-06-10T07:26:54.566Z,26.20
2019-06-10T07:29:25.075Z,26.30
2019-06-10T07:31:58.223Z,26.30
2019-06-10T07:34:40.483Z,26.30
2019-06-10T07:37:17.549Z,26.40
2019-06-10T07:39:52.175Z,26.70
2019-06-10T07:42:28.676Z,26.60
2019-06-10T07:47:41.742Z,26.90
2019-06-10T07:50:18.169Z,27.00
2019-06-10T07:55:46.637Z,27.30
2019-06-10T07:58:22.524Z,27.40
2019-06-10T08:00:55.159Z,27.60
2019-06-10T08:03:28.117Z,27.80
2019-06-10T08:05:59.313Z,28.00
2019-06-10T08:08:32.848Z,28.00
2019-06-10T08:13:35.211Z,28.00
2019-06-10T08:16:08.124Z,28.00
2019-06-10T08:19:07.054Z,28.10
2019-06-10T08:21:12.202Z,28.00
2019-06-10T08:23:46.547Z,27.90
2019-06-10T08:26:16.616Z,27.80
2019-06-10T08:28:52.823Z,27.60
2019-06-10T08:31:24.547Z,27.50
2019-06-10T08:33:59.591Z,27.50
2019-06-10T08:36:33.119Z,27.50
2019-06-10T08:39:03.755Z,27.60
2019-06-10T08:41:38.354Z,27.70
2019-06-10T08:44:12.323Z,27.70
2019-06-10T08:46:46.511Z,28.00
2019-06-10T08:49:35.332Z,28.10
2019-06-10T08:52:12.856Z,28.10
2019-06-10T08:54:47.948Z,28.20
2019-06-10T08:57:19.534Z,28.40
2019-06-10T08:59:53.154Z,28.50
2019-06-10T09:02:23.284Z,28.70
2019-06-10T09:04:58.439Z,28.90
2019-06-10T09:07:28.808Z,28.90
2019-06-10T09:10:02.948Z,29.00
2019-06-10T09:12:36.745Z,29.00
2019-06-10T09:15:13.047Z,29.30
2019-06-10T09:17:48.341Z,29.50
2019-06-10T09:20:22.993Z,29.50
2019-06-10T09:25:28.491Z,29.40
2019-06-10T09:28:03.571Z,29.40
2019-06-10T09:30:35.212Z,29.70
2019-06-10T09:33:13.435Z,30.00
2019-06-10T09:35:46.157Z,30.10
2019-06-10T09:38:38.195Z,30.30
2019-06-10T09:41:14.121Z,30.40
2019-06-10T09:43:50.316Z,30.50
2019-06-10T09:46:23.305Z,30.50
2019-06-10T09:49:02.109Z,30.60
2019-06-10T09:54:08.829Z,30.60
2019-06-10T09:56:46.894Z,30.80
2019-06-10T09:59:17.971Z,31.10
2019-06-10T10:01:52.203Z,31.50
2019-06-10T10:04:23.537Z,31.60
2019-06-10T10:06:57.318Z,31.70
2019-06-10T10:09:27.717Z,31.50
2019-06-10T10:11:57.449Z,31.40
2019-06-10T10:17:04.684Z,31.40
2019-06-10T10:19:34.412Z,31.40
2019-06-10T10:22:05.923Z,31.60
2019-06-10T10:24:42.955Z,31.80
2019-06-10T10:27:14.626Z,32.00
2019-06-10T10:29:50.024Z,31.90
2019-06-10T10:32:23.170Z,32.00
2019-06-10T10:34:56.357Z,32.40
2019-06-10T10:40:03.265Z,32.20
2019-06-10T10:42:45.514Z,32.10
2019-06-10T10:45:13.317Z,31.90
2019-06-10T10:47:46.953Z,31.60
2019-06-10T10:50:19.104Z,31.80
2019-06-10T10:52:52.285Z,31.90
2019-06-10T10:55:29.393Z,32.00
2019-06-10T10:57:59.437Z,32.00
2019-06-10T11:00:37.546Z,31.80
2019-06-10T11:03:07.832Z,31.80
2019-06-10T11:05:38.793Z,31.90
2019-06-10T11:08:14.332Z,31.70
2019-06-10T11:10:55.446Z,31.70
2019-06-10T11:13:25.113Z,31.90
2019-06-10T11:15:57.123Z,32.00
2019-06-10T11:18:28.777Z,32.00
2019-06-10T11:21:04.326Z,31.80
2019-06-10T11:23:34.720Z,31.70
2019-06-10T11:26:06.043Z,31.70
2019-06-10T11:28:37.387Z,31.60
2019-06-10T11:31:07.590Z,31.70
2019-06-10T11:33:40.182Z,31.80
2019-06-10T11:36:13.457Z,31.90
2019-06-10T11:38:46.266Z,31.90
2019-06-10T11:41:17.822Z,31.90
2019-06-10T11:43:48.390Z,31.80
2019-06-10T11:46:21.288Z,31.80
2019-06-10T11:48:57.308Z,31.90
2019-06-10T11:51:31.887Z,31.70
2019-06-10T11:54:03.622Z,31.50
2019-06-10T11:56:34.802Z,31.40
2019-06-10T11:59:09.583Z,31.20
2019-06-10T12:01:39.099Z,31.00
2019-06-10T12:04:12.923Z,30.90
2019-06-10T12:06:44.503Z,30.80
2019-06-10T12:09:15.859Z,30.80
2019-06-10T12:11:50.820Z,30.90
2019-06-10T12:14:26.786Z,31.20
2019-06-10T12:17:32.364Z,31.50
2019-06-10T12:19:38.555Z,31.80
2019-06-10T12:22:09.879Z,31.90
2019-06-10T12:24:43.285Z,31.80
2019-06-10T12:27:13.155Z,31.80
2019-06-10T12:29:47.936Z,31.80
2019-06-10T12:32:18.029Z,32.10
2019-06-10T12:34:51.340Z,32.00
2019-06-10T12:37:24.378Z,32.00
2019-06-10T12:39:59.979Z,32.00
2019-06-10T12:42:34.142Z,31.80
2019-06-10T12:45:07.645Z,32.00
2019-06-10T12:47:37.651Z,32.10
2019-06-10T12:50:11.922Z,32.20
2019-06-10T12:52:44.066Z,32.10
2019-06-10T12:55:35.551Z,31.80
2019-06-10T12:57:56.074Z,31.60
2019-06-10T13:00:27.932Z,31.70
2019-06-10T13:03:19.336Z,31.70
2019-06-10T13:05:49.502Z,31.70
2019-06-10T13:08:23.989Z,31.60
2019-06-10T13:10:55.763Z,31.60
2019-06-10T13:13:46.060Z,31.60
2019-06-10T13:16:19.859Z,31.60
2019-06-10T13:18:52.483Z,31.60
2019-06-10T13:21:27.346Z,31.50
2019-06-10T13:24:02.529Z,31.50
2019-06-10T13:26:36.184Z,31.40
2019-06-10T13:29:10.294Z,31.30
2019-06-10T13:31:43.548Z,31.30
2019-06-10T13:34:17.878Z,31.20
2019-06-10T13:36:49.653Z,31.30
2019-06-10T13:39:22.261Z,31.30
2019-06-10T13:41:53.470Z,31.30
2019-06-10T13:44:24.706Z,31.40
2019-06-10T13:46:57.123Z,31.40
2019-06-10T13:52:07.555Z,31.20
2019-06-10T13:54:36.001Z,31.10
2019-06-10T13:57:09.773Z,31.10
2019-06-10T13:59:59.697Z,31.10
2019-06-10T14:02:32.428Z,31.10
2019-06-10T14:07:46.324Z,30.90
2019-06-10T14:10:19.375Z,30.90
2019-06-10T14:12:52.677Z,30.90
2019-06-10T14:15:24.417Z,31.00
2019-06-10T14:17:57.971Z,31.00
2019-06-10T14:20:29.468Z,31.00
2019-06-10T14:23:02.581Z,31.10
2019-06-10T14:25:34.548Z,31.30
2019-06-10T14:28:07.704Z,31.30
2019-06-10T14:30:39.218Z,31.20
2019-06-10T14:33:14.302Z,31.10
2019-06-10T14:35:43.464Z,31.10
2019-06-10T14:38:15.850Z,31.10
2019-06-10T14:40:52.267Z,31.00
2019-06-10T14:43:24.639Z,31.10
2019-06-10T14:45:55.575Z,31.20
2019-06-10T14:48:29.691Z,31.30
2019-06-10T14:51:03.296Z,31.10
2019-06-10T14:53:35.493Z,31.00
2019-06-10T14:56:09.720Z,31.00
2019-06-10T14:58:43.692Z,31.00
2019-06-10T15:01:24.060Z,31.00
2019-06-10T15:03:52.158Z,30.90
2019-06-10T15:06:22.820Z,30.90
2019-06-10T15:08:55.479Z,31.00
2019-06-10T15:11:27.790Z,31.10
2019-06-10T15:14:03.066Z,31.10
2019-06-10T15:16:39.343Z,31.00
2019-06-10T15:19:19.999Z,31.00
2019-06-10T15:21:46.912Z,31.00
2019-06-10T15:24:23.683Z,31.00
2019-06-10T15:27:09.037Z,30.90
2019-06-10T15:29:32.802Z,30.80
2019-06-10T15:32:14.000Z,30.80
2019-06-10T15:34:38.097Z,30.80
2019-06-10T15:37:08.895Z,30.80
2019-06-10T15:39:42.286Z,30.70
2019-06-10T15:42:18.275Z,30.70
2019-06-10T15:45:02.544Z,30.70
2019-06-10T15:47:36.329Z,30.70
2019-06-10T15:50:12.497Z,30.60
2019-06-10T15:52:43.249Z,30.50
2019-06-10T15:55:37.839Z,30.40
2019-06-10T15:57:49.229Z,30.40
2019-06-10T16:00:24.512Z,30.40
2019-06-10T16:02:54.311Z,30.40
2019-06-10T16:05:28.389Z,30.40
2019-06-10T16:08:04.983Z,30.40
2019-06-10T16:10:40.088Z,30.40
2019-06-10T16:13:12.402Z,30.40
2019-06-10T16:15:45.621Z,30.40
2019-06-10T16:18:18.495Z,30.40
2019-06-10T16:20:52.760Z,30.40
2019-06-10T16:23:26.793Z,30.40
2019-06-10T16:25:58.175Z,30.40
2019-06-10T16:28:35.959Z,30.40
2019-06-10T16:31:08.741Z,30.40
2019-06-10T16:33:48.162Z,30.30
2019-06-10T16:36:17.123Z,30.20
2019-06-10T16:38:52.808Z,30.20
2019-06-10T16:41:26.470Z,30.20
2019-06-10T16:43:57.841Z,30.20
2019-06-10T16:46:29.114Z,30.10
2019-06-10T16:49:03.243Z,30.10
2019-06-10T16:51:35.584Z,30.10
2019-06-10T16:54:09.491Z,30.00
2019-06-10T16:56:43.543Z,30.00
2019-06-10T16:59:17.832Z,29.90
2019-06-10T17:01:53.154Z,29.90
2019-06-10T17:04:27.603Z,29.90
2019-06-10T17:07:02.130Z,29.80
2019-06-10T17:09:33.126Z,29.80
2019-06-10T17:12:04.406Z,29.80
2019-06-10T17:14:38.591Z,29.80
2019-06-10T17:17:08.652Z,29.70
2019-06-10T17:19:42.607Z,29.70
2019-06-10T17:22:14.080Z,29.60
2019-06-10T17:24:45.138Z,29.60
2019-06-10T17:27:17.328Z,29.50
2019-06-10T17:30:07.681Z,29.50
2019-06-10T17:32:39.008Z,29.50
2019-06-10T17:35:12.654Z,29.40
2019-06-10T17:37:44.109Z,29.40
2019-06-10T17:40:15.867Z,29.30
2019-06-10T17:42:48.597Z,29.30
2019-06-10T17:45:25.780Z,29.30
2019-06-10T17:47:54.827Z,29.30
2019-06-10T17:50:26.869Z,29.20
2019-06-10T17:52:59.099Z,29.10
2019-06-10T17:55:29.739Z,29.00
2019-06-10T17:58:02.756Z,29.00
2019-06-10T18:00:36.352Z,28.90
2019-06-10T18:03:09.353Z,28.80
2019-06-10T18:05:42.620Z,28.80
2019-06-10T18:08:13.211Z,28.80
2019-06-10T18:10:45.249Z,28.80
2019-06-10T18:13:16.825Z,28.70
2019-06-10T18:15:53.417Z,28.60
2019-06-10T18:18:24.201Z,28.50
2019-06-10T18:20:54.517Z,28.50
2019-06-10T18:23:30.843Z,28.40
2019-06-10T18:26:03.238Z,28.40
2019-06-10T18:28:53.948Z,28.40
2019-06-10T18:31:11.452Z,28.30
2019-06-10T18:33:44.062Z,28.20
2019-06-10T18:36:15.419Z,28.10
2019-06-10T18:38:46.079Z,28.10
2019-06-10T18:41:19.380Z,28.10
2019-06-10T18:43:52.083Z,28.00
2019-06-10T18:46:27.955Z,27.90
2019-06-10T18:48:59.279Z,27.80
2019-06-10T18:51:35.668Z,27.70
2019-06-10T18:54:05.298Z,27.60
2019-06-10T18:56:39.961Z,27.60
2019-06-10T18:59:19.855Z,27.60
2019-06-10T19:01:52.668Z,27.50
2019-06-10T19:04:34.995Z,27.40
2019-06-10T19:07:18.544Z,27.40
2019-06-10T19:09:54.234Z,27.30
2019-06-10T19:12:29.085Z,27.30
2019-06-10T19:15:02.640Z,27.30
2019-06-10T19:17:39.558Z,27.20
2019-06-10T19:20:15.365Z,27.10
2019-06-10T19:22:48.723Z,27.10
2019-06-10T19:25:19.878Z,27.10
2019-06-10T19:27:53.037Z,27.00
2019-06-10T19:30:24.136Z,27.00
2019-06-10T19:32:55.480Z,26.80
2019-06-10T19:35:27.971Z,26.70
2019-06-10T19:38:02.240Z,26.60
2019-06-10T19:40:33.800Z,26.50
2019-06-10T19:43:05.332Z,26.50
2019-06-10T19:45:36.060Z,26.60
2019-06-10T19:48:12.259Z,26.60
2019-06-10T19:50:48.113Z,26.50
2019-06-10T19:53:17.167Z,26.40
2019-06-10T19:55:53.127Z,26.30
2019-06-10T19:58:24.786Z,26.30
2019-06-10T20:00:56.014Z,26.20
2019-06-10T20:03:26.227Z,26.20
2019-06-10T20:05:57.420Z,26.10
2019-06-10T20:08:28.872Z,26.00
2019-06-10T20:11:00.126Z,25.90
2019-06-10T20:13:32.449Z,25.90
2019-06-10T20:16:12.380Z,25.80
2019-06-10T20:18:47.875Z,25.70
2019-06-10T20:21:18.915Z,25.70
2019-06-10T20:23:53.044Z,25.60
2019-06-10T20:26:28.235Z,25.60
2019-06-10T20:28:58.214Z,25.50
2019-06-10T20:31:28.503Z,25.40
2019-06-10T20:33:59.829Z,25.40
2019-06-10T20:36:33.451Z,25.30
2019-06-10T20:39:06.329Z,25.30
2019-06-10T20:41:47.285Z,25.20
2019-06-10T20:44:17.850Z,25.20
2019-06-10T20:46:49.353Z,25.10
2019-06-10T20:49:22.741Z,25.00
2019-06-10T20:52:09.793Z,25.00
2019-06-10T20:54:32.430Z,24.80
2019-06-10T20:57:04.334Z,24.70
2019-06-10T20:59:36.686Z,24.70
2019-06-10T21:02:07.824Z,24.60
2019-06-10T21:04:38.939Z,24.60
2019-06-10T21:07:12.609Z,24.50
2019-06-10T21:09:48.612Z,24.50
2019-06-10T21:12:22.302Z,24.40
2019-06-10T21:14:53.905Z,24.40
2019-06-10T21:17:46.334Z,24.40
2019-06-10T21:20:17.184Z,24.40
2019-06-10T21:22:49.015Z,24.40
2019-06-10T21:25:22.824Z,24.40
2019-06-10T21:27:54.212Z,24.20
2019-06-10T21:30:40.594Z,24.20
2019-06-10T21:32:59.835Z,24.10
2019-06-10T21:35:33.155Z,24.00
2019-06-10T21:38:04.609Z,23.90
2019-06-10T21:40:35.226Z,23.80
2019-06-10T21:43:06.418Z,23.70
2019-06-10T21:45:36.597Z,23.60
2019-06-10T21:48:06.923Z,23.60
2019-06-10T21:50:45.242Z,23.60
2019-06-10T21:53:14.765Z,23.50
2019-06-10T21:55:46.656Z,23.50
2019-06-10T21:58:17.711Z,23.50
2019-06-10T22:01:07.770Z,23.50
2019-06-10T22:03:23.547Z,23.50
2019-06-10T22:05:53.871Z,23.50
2019-06-10T22:08:25.343Z,23.50
2019-06-10T22:10:58.028Z,23.40
2019-06-10T22:13:32.735Z,23.30
2019-06-10T22:16:04.691Z,23.30
2019-06-10T22:18:37.909Z,23.30
2019-06-10T22:21:08.030Z,23.20
2019-06-10T22:23:38.040Z,23.20
2019-06-10T22:26:12.931Z,23.20
2019-06-10T22:28:45.414Z,23.10
2019-06-10T22:31:23.031Z,23.10
2019-06-10T22:33:52.073Z,23.10
2019-06-10T22:36:23.758Z,23.00
2019-06-10T22:38:57.763Z,23.00
2019-06-10T22:41:26.706Z,23.00
2019-06-10T22:46:29.048Z,22.80
2019-06-10T22:49:02.789Z,22.70
2019-06-10T22:51:32.943Z,22.70
2019-06-10T22:54:03.482Z,22.60
2019-06-10T22:56:34.028Z,22.60
2019-06-10T22:59:04.945Z,22.60
2019-06-10T23:01:38.394Z,22.60
2019-06-10T23:04:10.172Z,22.70
2019-06-10T23:06:42.842Z,22.60
2019-06-10T23:09:13.057Z,22.70
2019-06-10T23:11:44.165Z,22.70
2019-06-10T23:14:18.517Z,22.60
2019-06-10T23:16:50.641Z,22.60
2019-06-10T23:19:23.443Z,22.50
2019-06-10T23:21:54.163Z,22.60
2019-06-10T23:24:25.665Z,22.50
2019-06-10T23:26:57.958Z,22.50
2019-06-10T23:29:27.278Z,22.50
2019-06-10T23:32:05.873Z,22.50
2019-06-10T23:34:33.261Z,22.40
2019-06-10T23:37:04.665Z,22.40
2019-06-10T23:39:38.133Z,22.40
2019-06-10T23:42:08.235Z,22.40
2019-06-10T23:44:39.349Z,22.40
2019-06-10T23:47:12.762Z,22.40
2019-06-10T23:49:42.937Z,22.50
2019-06-10T23:52:14.278Z,22.40
2019-06-10T23:54:46.088Z,22.30
2019-06-10T23:57:17.273Z,22.20
2019-06-10T23:59:48.536Z,22.20
